Time;durP1;ratioP1;P1;durP2;ratioP2;P2;SDS_P1;SDS_P2;PMS_P1;PMS_P2;Temp;Humidity;BMP_temperature;BMP_pressure;BME280_temperature;BME280_humidity;BME280_pressure;Samples;Min_cycle;Max_cycle;Signal;HPM_P1;HPM_P2
2022/07/21 00:01:12;;;;;;;14.33;6.10;;;;;;;24.86;52.33;100741.80;3541579;82;98783;-84
2022/07/21 00:06:13;;;;;;;11.85;5.40;;;;;;;24.75;51.82;100734.42;3556059;82;98779;-84
2022/07/21 00:11:14;;;;;;;10.78;5.00;;;;;;;24.64;51.62;100734.85;3503365;82;98956;-84
2022/07/21 00:16:15;;;;;;;8.78;4.47;;;;;;;24.59;52.05;100727.05;3502405;82;99028;-85
2022/07/21 00:21:16;;;;;;;8.60;4.47;;;;;;;24.57;52.17;100718.23;3517208;82;98891;-83
2022/07/21 00:26:17;;;;;;;9.15;5.17;;;;;;;24.52;52.17;100727.94;3493833;83;98860;-83
2022/07/21 00:31:18;;;;;;;9.73;4.53;;;;;;;24.42;51.15;100722.11;3485879;83;98206;-84
2022/07/21 00:36:21;;;;;;;8.80;5.12;;;;;;;24.31;51.37;100725.98;3489218;83;98740;-84
2022/07/21 00:41:22;;;;;;;9.50;4.65;;;;;;;24.26;52.12;100729.40;3502234;83;98722;-84
2022/07/21 00:46:23;;;;;;;8.53;5.30;;;;;;;24.23;51.86;100716.25;3481129;83;98990;-84
2022/07/21 00:51:24;;;;;;;9.00;4.97;;;;;;;24.17;51.81;100713.27;3484667;82;98966;-84
2022/07/21 00:56:25;;;;;;;10.60;5.50;;;;;;;24.02;52.90;100686.16;3510434;83;99451;-85
2022/07/21 01:01:26;;;;;;;11.03;5.00;;;;;;;24.02;52.90;100686.16;3495612;83;98707;-83
2022/07/21 01:06:27;;;;;;;11.38;5.20;;;;;;;24.08;53.02;100704.78;3484554;83;99111;-84
2022/07/21 01:11:28;;;;;;;10.88;4.60;;;;;;;24.03;53.10;100704.62;3478107;83;98958;-84
2022/07/21 01:16:29;;;;;;;9.43;4.83;;;;;;;24.01;53.36;100702.27;3456549;83;99347;-83
2022/07/21 01:21:34;;;;;;;8.93;5.30;;;;;;;24.00;53.69;100702.72;3504605;83;98870;-82
2022/07/21 01:26:49;;;;;;;10.13;4.97;;;;;;;23.93;53.32;100704.41;3485860;83;99478;-84
2022/07/21 01:31:51;;;;;;;7.77;4.37;;;;;;;23.89;53.40;100703.75;3474104;83;99067;-84
2022/07/21 01:36:52;;;;;;;9.10;5.05;;;;;;;23.83;53.30;100694.33;3480901;83;98935;-85
2022/07/21 01:41:53;;;;;;;8.60;4.17;;;;;;;23.78;53.12;100700.55;3463810;83;99116;-83
2022/07/21 01:46:54;;;;;;;8.87;4.20;;;;;;;23.70;52.93;100697.22;3463151;83;99181;-83
2022/07/21 01:51:55;;;;;;;8.18;4.20;;;;;;;23.66;52.81;100697.97;3515063;83;98802;-85
2022/07/21 01:56:56;;;;;;;11.43;5.20;;;;;;;23.54;53.22;100693.22;3495168;83;98825;-83
2022/07/21 02:01:57;;;;;;;8.23;4.22;;;;;;;23.56;53.60;100695.58;3459025;83;99064;-83
2022/07/21 02:06:58;;;;;;;12.35;5.03;;;;;;;23.37;54.59;100664.41;3472995;83;98474;-83
2022/07/21 02:11:59;;;;;;;9.68;5.05;;;;;;;23.37;54.59;100664.41;3480380;83;98879;-83
2022/07/21 02:17:00;;;;;;;8.58;4.97;;;;;;;23.46;54.58;100682.09;3522437;83;98693;-84
2022/07/21 02:22:02;;;;;;;9.25;4.58;;;;;;;23.43;54.78;100683.00;3505565;83;99431;-84
2022/07/21 02:27:03;;;;;;;9.83;5.00;;;;;;;23.39;54.92;100687.98;3472449;83;99436;-83
2022/07/21 02:32:05;;;;;;;13.28;5.35;;;;;;;23.39;55.20;100690.80;3475700;83;98828;-84
2022/07/21 02:37:05;;;;;;;9.65;5.12;;;;;;;23.37;55.68;100688.28;3503479;82;99014;-84
2022/07/21 02:42:06;;;;;;;9.55;5.50;;;;;;;23.28;55.84;100687.56;3508958;82;98898;-84
2022/07/21 02:47:07;;;;;;;9.55;4.90;;;;;;;23.27;55.33;100683.19;3476416;83;99027;-84
2022/07/21 02:52:08;;;;;;;8.60;4.50;;;;;;;23.19;55.82;100676.28;3507166;83;98872;-84
2022/07/21 02:57:09;;;;;;;8.90;4.45;;;;;;;23.15;56.23;100672.78;3471301;82;98921;-83
2022/07/21 03:02:10;;;;;;;9.75;5.25;;;;;;;23.13;56.15;100674.48;3497544;83;98802;-83
2022/07/21 03:07:11;;;;;;;9.43;5.22;;;;;;;23.06;55.97;100675.51;3488487;82;98767;-85
2022/07/21 03:12:12;;;;;;;9.45;5.08;;;;;;;22.99;56.23;100668.75;3494041;83;98737;-83
2022/07/21 03:17:13;;;;;;;9.40;4.25;;;;;;;22.91;55.97;100663.84;3499778;83;98869;-84
2022/07/21 03:22:14;;;;;;;9.78;4.78;;;;;;;22.89;56.71;100664.94;3478215;83;98960;-83
2022/07/21 03:27:15;;;;;;;8.60;4.17;;;;;;;22.82;56.37;100655.34;3492269;83;98908;-84
2022/07/21 03:32:16;;;;;;;10.70;5.25;;;;;;;22.80;57.15;100648.80;3478745;83;98982;-85
2022/07/21 03:37:17;;;;;;;10.63;5.47;;;;;;;22.76;56.76;100642.52;3483721;83;98652;-84
2022/07/21 03:42:18;;;;;;;8.33;4.75;;;;;;;22.75;57.28;100649.38;3484860;83;98826;-83
2022/07/21 03:47:19;;;;;;;11.12;5.28;;;;;;;22.76;57.57;100654.35;3459678;83;98462;-83
2022/07/21 03:52:20;;;;;;;8.13;4.20;;;;;;;22.79;57.84;100649.25;3472082;83;99075;-84
2022/07/21 03:57:21;;;;;;;11.07;4.67;;;;;;;22.73;57.39;100657.45;3497504;83;98878;-84
2022/07/21 04:02:22;;;;;;;8.20;4.50;;;;;;;22.65;57.01;100666.56;3478527;82;99086;-84
2022/07/21 04:07:23;;;;;;;7.77;5.03;;;;;;;22.58;57.00;100665.41;3454758;83;98573;-85
2022/07/21 04:12:28;;;;;;;10.15;5.40;;;;;;;22.59;57.15;100665.58;3533282;82;98646;-83
2022/07/21 04:17:29;;;;;;;11.10;5.20;;;;;;;22.58;57.10;100672.42;3510567;82;99089;-83
2022/07/21 04:22:30;;;;;;;11.57;4.62;;;;;;;22.60;57.30;100672.14;3530250;82;99067;-84
2022/07/21 04:27:32;;;;;;;11.13;5.23;;;;;;;22.63;57.46;100685.28;3531534;82;99070;-82
2022/07/21 04:32:33;;;;;;;11.45;5.47;;;;;;;22.65;57.29;100677.19;3538954;82;99114;-83
2022/07/21 04:37:36;;;;;;;9.33;4.70;;;;;;;22.67;57.05;100680.31;3503620;82;98772;-83
2022/07/21 04:42:38;;;;;;;9.70;4.78;;;;;;;22.72;57.27;100676.16;3521722;82;26559;-83
2022/07/21 04:47:54;;;;;;;8.98;4.47;;;;;;;22.76;57.29;100676.80;3549089;82;98588;-83
2022/07/21 04:52:55;;;;;;;;;;;;;;;22.79;57.73;100687.14;3560190;82;98914;-81
2022/07/21 04:57:58;;;;;;;10.38;5.10;;;;;;;22.86;58.21;100700.31;3541651;82;84820;-84
2022/07/21 05:03:00;;;;;;;11.63;5.10;;;;;;;22.94;57.42;100700.21;3527071;82;99396;-84
2022/07/21 05:08:01;;;;;;;11.80;5.60;;;;;;;23.03;57.07;100698.89;3538076;82;99595;-84
2022/07/21 05:13:01;;;;;;;8.85;5.03;;;;;;;23.17;56.93;100697.61;3559390;82;26505;-83
2022/07/21 05:18:02;;;;;;;9.93;5.35;;;;;;;23.32;56.55;100690.27;3469593;82;98842;-85
2022/07/21 05:23:04;;;;;;;16.80;6.45;;;;;;;23.49;56.25;100688.19;3493733;83;98632;-85
2022/07/21 05:28:08;;;;;;;9.95;4.85;;;;;;;23.70;55.99;100699.27;3506224;83;99124;-83
2022/07/21 05:33:09;;;;;;;10.45;5.00;;;;;;;23.99;55.49;100689.91;3492492;83;99251;-84
2022/07/21 05:38:10;;;;;;;9.23;5.25;;;;;;;24.40;55.22;100693.64;3501146;82;99051;-84
2022/07/21 05:43:11;;;;;;;12.18;6.10;;;;;;;24.91;54.57;100698.30;3512620;83;25849;-84
2022/07/21 05:48:11;;;;;;;12.10;5.12;;;;;;;25.47;53.63;100691.60;3502693;82;99176;-85
2022/07/21 05:53:12;;;;;;;11.25;4.97;;;;;;;26.13;53.21;100692.52;3492948;82;98913;-87
2022/07/21 05:58:14;;;;;;;12.58;5.83;;;;;;;26.79;52.13;100694.05;3454609;83;98998;-87
2022/07/21 06:03:15;;;;;;;15.90;6.58;;;;;;;27.44;50.35;100687.58;3527253;83;99014;-85
2022/07/21 06:08:16;;;;;;;12.73;5.67;;;;;;;28.09;48.95;100690.02;3488524;83;99107;-85
2022/07/21 06:13:17;;;;;;;13.58;5.35;;;;;;;28.75;47.98;100686.77;3539766;83;26463;-85
2022/07/21 06:18:18;;;;;;;13.90;6.03;;;;;;;29.38;46.76;100677.22;3504594;82;99187;-84
2022/07/21 06:23:20;;;;;;;14.78;6.00;;;;;;;29.89;45.56;100675.02;3494638;83;98947;-83
2022/07/21 06:28:21;;;;;;;13.08;5.37;;;;;;;30.33;44.25;100679.62;3500106;82;99109;-83
2022/07/21 06:33:24;;;;;;;11.35;5.62;;;;;;;30.67;43.84;100686.45;3497095;83;99044;-84
2022/07/21 06:38:25;;;;;;;13.48;5.78;;;;;;;31.12;42.44;100694.53;3489606;82;99278;-84
2022/07/21 06:43:26;;;;;;;12.28;6.35;;;;;;;31.56;41.95;100689.77;3517538;83;26213;-86
2022/07/21 06:48:27;;;;;;;12.82;5.87;;;;;;;31.70;40.97;100690.16;3521776;82;98694;-83
2022/07/21 06:53:29;;;;;;;13.60;5.70;;;;;;;32.31;39.89;100682.42;3500063;83;98955;-84
2022/07/21 06:58:31;;;;;;;11.28;5.50;;;;;;;32.31;39.89;100682.42;3488212;82;99108;-84
2022/07/21 07:03:33;;;;;;;20.35;6.20;;;;;;;32.63;39.75;100681.45;3493104;83;99049;-86
2022/07/21 07:08:34;;;;;;;14.50;6.72;;;;;;;32.86;39.24;100681.53;3481657;83;99089;-86
2022/07/21 07:13:35;;;;;;;12.28;6.05;;;;;;;33.13;38.29;100671.40;3549613;82;26482;-84
2022/07/21 07:18:37;;;;;;;12.45;6.20;;;;;;;33.25;37.93;100677.83;3549622;82;98751;-84
2022/07/21 07:23:39;;;;;;;15.43;6.25;;;;;;;33.38;37.99;100679.45;3542203;83;99433;-85
2022/07/21 07:28:40;;;;;;;16.00;6.58;;;;;;;33.90;37.13;100682.34;3510406;83;99058;-84
2022/07/21 07:33:41;;;;;;;11.90;6.10;;;;;;;34.36;36.50;100670.78;3514634;83;98984;-84
2022/07/21 07:38:42;;;;;;;14.50;6.62;;;;;;;34.40;35.49;100672.69;3532219;82;99003;-85
2022/07/21 07:43:44;;;;;;;12.75;6.55;;;;;;;34.49;35.35;100679.46;3476383;83;98951;-83
2022/07/21 07:48:45;;;;;;;13.83;6.42;;;;;;;34.60;34.95;100681.44;3516092;83;99582;-83
2022/07/21 07:53:46;;;;;;;12.73;5.83;;;;;;;34.51;35.17;100681.78;3525920;83;98909;-84
2022/07/21 07:58:46;;;;;;;15.45;6.42;;;;;;;34.29;35.38;100693.45;3522572;82;99400;-83
2022/07/21 08:03:47;;;;;;;10.68;7.12;;;;;;;34.13;35.88;100685.78;3510702;82;98177;-84
2022/07/21 08:08:49;;;;;;;12.53;6.67;;;;;;;34.15;35.31;100678.87;3479608;83;99063;-85
2022/07/21 08:13:50;;;;;;;16.52;7.15;;;;;;;34.32;35.70;100684.58;3510522;83;98979;-86
2022/07/21 08:18:51;;;;;;;14.40;6.65;;;;;;;34.69;35.01;100681.84;3456916;83;98678;-85
2022/07/21 08:23:52;;;;;;;14.25;6.92;;;;;;;35.18;34.35;100669.02;3511467;83;98803;-85
2022/07/21 08:28:56;;;;;;;13.58;5.67;;;;;;;35.64;34.16;100667.84;3487120;83;99071;-85
2022/07/21 08:33:57;;;;;;;30.00;8.48;;;;;;;35.97;33.34;100658.04;3481951;82;99506;-86
2022/07/21 08:38:58;;;;;;;10.60;6.22;;;;;;;36.69;33.31;100647.48;3501307;83;99407;-85
2022/07/21 08:43:59;;;;;;;12.10;6.17;;;;;;;37.37;32.13;100646.92;3512941;83;99478;-88
2022/07/21 08:49:03;;;;;;;11.22;6.28;;;;;;;37.98;31.03;100645.52;3473371;83;98851;-85
2022/07/21 08:54:05;;;;;;;12.60;6.25;;;;;;;38.67;30.53;100646.14;3457050;83;99313;-86
2022/07/21 08:59:06;;;;;;;12.55;6.35;;;;;;;39.34;30.37;100642.85;3459965;82;98941;-85
2022/07/21 09:04:29;;;;;;;9.98;6.17;;;;;;;39.63;28.68;100639.27;3489850;83;99087;-85
2022/07/21 09:09:34;;;;;;;10.70;6.20;;;;;;;40.07;27.67;100632.66;3494477;83;98942;-84
2022/07/21 09:14:36;;;;;;;9.30;6.20;;;;;;;40.59;27.34;100619.64;3495259;82;99156;-90
2022/07/21 09:19:41;;;;;;;20.60;7.30;;;;;;;41.00;26.08;100616.25;3510303;82;98845;-85
2022/07/21 09:24:45;;;;;;;8.55;5.42;;;;;;;41.28;25.55;100612.23;3529000;82;25819;-85
2022/07/21 09:29:57;;;;;;;9.15;6.30;;;;;;;41.62;25.32;100605.95;3538651;82;99352;-84
2022/07/21 09:35:15;;;;;;;12.10;6.70;;;;;;;41.87;24.44;100596.63;3526018;82;97935;-85
2022/07/21 09:40:16;;;;;;;10.53;5.47;;;;;;;41.92;24.72;100588.40;3507654;82;99037;-85
2022/07/21 09:45:19;;;;;;;13.43;5.65;;;;;;;42.59;23.96;100594.20;3517315;82;99000;-85
2022/07/21 09:50:20;;;;;;;10.23;5.22;;;;;;;42.79;22.85;100592.98;3497578;82;99092;-82
2022/07/21 09:55:21;;;;;;;11.93;5.40;;;;;;;42.59;23.04;100579.72;3485202;82;25811;-87
2022/07/21 10:00:22;;;;;;;9.53;5.30;;;;;;;42.72;22.70;100582.25;3525988;82;98558;-85
2022/07/21 10:05:24;;;;;;;11.18;5.10;;;;;;;42.58;22.71;100586.10;3527165;82;98684;-85
2022/07/21 10:10:25;;;;;;;9.90;5.27;;;;;;;42.62;22.23;100585.78;3509422;82;98968;-87
2022/07/21 10:15:26;;;;;;;9.80;4.62;;;;;;;42.92;22.48;100578.80;3532957;82;99179;-86
2022/07/21 10:20:34;;;;;;;8.70;4.80;;;;;;;43.41;22.22;100574.18;3520271;82;98868;-82
2022/07/21 10:25:58;;;;;;;8.30;4.75;;;;;;;43.61;21.07;100567.88;3534621;82;25918;-87
2022/07/21 10:31:15;;;;;;;9.98;4.55;;;;;;;43.68;20.80;100562.63;3481145;82;98479;-86
2022/07/21 10:36:34;;;;;;;10.13;4.92;;;;;;;43.78;20.86;100547.50;3536667;82;98682;-83
2022/07/21 10:41:42;;;;;;;8.95;4.30;;;;;;;43.66;20.64;100551.55;3555761;82;98870;-83
2022/07/21 10:46:48;;;;;;;9.58;5.00;;;;;;;44.07;20.01;100547.56;3526093;82;98871;-86
2022/07/21 10:51:49;;;;;;;8.90;4.85;;;;;;;44.13;19.82;100540.09;3511029;82;98911;-85
2022/07/21 10:56:58;;;;;;;9.63;4.80;;;;;;;43.95;19.44;100552.41;3526409;82;99220;-86
2022/07/21 11:02:26;;;;;;;7.58;4.65;;;;;;;43.77;19.59;100544.53;3539367;82;98918;-86
2022/07/21 11:07:49;;;;;;;11.35;5.58;;;;;;;43.77;19.98;100553.23;3514524;82;98777;-89
2022/07/21 11:12:58;;;;;;;8.70;5.17;;;;;;;44.08;19.77;100549.08;3511982;82;25939;-84
2022/07/21 11:17:59;;;;;;;13.38;4.97;;;;;;;43.93;19.58;100553.04;3512119;82;98647;-82
2022/07/21 11:23:02;;;;;;;12.10;5.12;;;;;;;44.08;19.36;100546.93;3535753;82;98864;-82
2022/07/21 11:28:03;;;;;;;12.73;5.15;;;;;;;44.30;19.75;100532.69;3503831;82;99341;-82
2022/07/21 11:33:04;;;;;;;12.07;5.50;;;;;;;43.47;18.70;100530.51;3486388;82;99030;-85
2022/07/21 11:39:03;;;;;;;7.20;4.85;;;;;;;43.13;19.25;100524.85;3497358;82;99549;-84
2022/07/21 11:44:06;;;;;;;9.15;5.05;;;;;;;42.58;18.94;100518.85;3538966;82;98902;-84
2022/07/21 11:49:07;;;;;;;8.28;4.62;;;;;;;42.33;19.55;100513.07;3493112;82;98585;-83
2022/07/21 11:54:21;;;;;;;9.60;4.22;;;;;;;42.49;19.13;100510.08;3515243;82;98616;-82
2022/07/21 11:59:24;;;;;;;8.88;5.08;;;;;;;42.77;19.48;100508.83;3534884;82;98652;-86
2022/07/21 12:04:39;;;;;;;11.55;5.40;;;;;;;42.66;18.69;100504.28;3525682;82;98846;-87
2022/07/21 12:09:43;;;;;;;13.43;4.80;;;;;;;42.52;19.26;100498.73;3542583;82;99034;-87
2022/07/21 12:14:48;;;;;;;10.72;5.00;;;;;;;42.43;19.49;100485.73;3520964;82;99053;-91
2022/07/21 12:19:50;;;;;;;11.18;4.60;;;;;;;42.17;18.83;100491.44;3500629;82;99385;-85
2022/07/21 12:24:58;;;;;;;7.78;4.72;;;;;;;42.16;19.52;100487.02;3526175;82;25973;-85
2022/07/21 12:29:59;;;;;;;8.63;4.90;;;;;;;42.37;18.72;100490.23;3514834;82;98790;-85
2022/07/21 12:35:01;;;;;;;12.35;5.40;;;;;;;41.71;18.82;100484.56;3510828;82;98700;-86
2022/07/21 12:40:04;;;;;;;10.13;4.53;;;;;;;41.67;18.80;100480.65;3516853;82;99062;-86
2022/07/21 12:45:20;;;;;;;8.73;5.00;;;;;;;41.31;18.57;100476.72;3501347;82;99055;-85
2022/07/21 12:50:21;;;;;;;10.13;4.67;;;;;;;40.78;19.15;100465.53;3500231;82;98894;-86
2022/07/21 12:55:22;;;;;;;9.08;4.85;;;;;;;40.91;19.13;100461.60;3526212;82;26478;-84
2022/07/21 13:00:23;;;;;;;9.23;4.60;;;;;;;41.04;18.69;100456.34;3511864;82;99124;-85
2022/07/21 13:05:25;;;;;;;7.37;4.20;;;;;;;40.94;19.21;100443.86;3546224;82;98674;-87
2022/07/21 13:10:26;;;;;;;;;;;;;;;41.12;19.68;100446.92;3534923;82;99413;-83
2022/07/21 13:15:27;;;;;;;10.45;4.53;;;;;;;41.25;19.08;100437.95;3488740;82;84274;-86
2022/07/21 13:20:28;;;;;;;8.28;4.22;;;;;;;41.33;19.58;100432.88;3474209;82;99103;-88
2022/07/21 13:25:29;;;;;;;9.88;4.95;;;;;;;41.45;19.45;100447.63;3462941;83;25829;-87
2022/07/21 13:30:29;;;;;;;11.12;4.83;;;;;;;41.17;18.79;100426.38;3500890;82;98579;-84
2022/07/21 13:35:32;;;;;;;11.90;4.90;;;;;;;40.91;18.88;100416.85;3490992;83;98766;-85
2022/07/21 13:40:32;;;;;;;14.33;5.10;;;;;;;40.42;18.97;100423.27;3482567;83;99478;-86
2022/07/21 13:45:34;;;;;;;8.33;3.80;;;;;;;40.30;19.56;100417.08;3497448;82;99529;-83
2022/07/21 13:50:35;;;;;;;12.40;4.53;;;;;;;40.35;19.60;100410.33;3478905;83;98931;-85
2022/07/21 13:55:36;;;;;;;8.73;4.72;;;;;;;40.54;19.61;100401.97;3510339;83;26489;-88
2022/07/21 14:00:37;;;;;;;6.72;4.17;;;;;;;40.47;19.80;100415.08;3508037;82;99058;-83
2022/07/21 14:05:37;;;;;;;7.97;4.30;;;;;;;40.46;20.25;100405.55;3495030;83;98708;-86
2022/07/21 14:10:38;;;;;;;8.30;4.30;;;;;;;40.67;19.63;100408.92;3501423;83;98787;-86
2022/07/21 14:15:41;;;;;;;13.38;4.65;;;;;;;40.28;19.22;100404.71;3494362;82;98826;-88
2022/07/21 14:20:42;;;;;;;7.92;4.50;;;;;;;40.18;19.93;100398.03;3499728;82;99083;-88
2022/07/21 14:25:43;;;;;;;9.45;4.05;;;;;;;39.98;19.65;100399.03;3473042;84;99229;-90
2022/07/21 14:30:44;;;;;;;11.60;4.28;;;;;;;39.89;20.15;100396.00;3524281;82;98381;-85
2022/07/21 14:35:45;;;;;;;9.03;4.12;;;;;;;39.91;19.73;100394.07;3532255;83;99019;-85
2022/07/21 14:40:48;;;;;;;7.55;4.03;;;;;;;39.61;20.11;100399.13;3518372;82;98804;-82
2022/07/21 14:45:49;;;;;;;8.68;4.55;;;;;;;39.59;20.67;100383.08;3536696;83;98951;-93
2022/07/21 14:50:50;;;;;;;8.00;4.20;;;;;;;39.55;20.09;100380.59;3529981;83;98999;-82
2022/07/21 14:55:51;;;;;;;8.10;3.77;;;;;;;39.50;20.50;100373.61;3532859;83;98884;-82
2022/07/21 15:00:52;;;;;;;9.25;4.22;;;;;;;39.42;20.61;100378.61;3517665;83;98731;-83
2022/07/21 15:05:53;;;;;;;9.50;4.30;;;;;;;39.26;20.27;100369.86;3521515;83;98580;-82
2022/07/21 15:10:54;;;;;;;9.48;4.15;;;;;;;39.14;20.21;100369.52;3528575;82;99409;-80
2022/07/21 15:15:55;;;;;;;10.03;4.65;;;;;;;39.10;20.69;100357.60;3515332;83;98769;-82
2022/07/21 15:20:56;;;;;;;10.70;4.42;;;;;;;39.12;20.80;100347.70;3494447;83;99057;-82
2022/07/21 15:25:57;;;;;;;11.25;5.42;;;;;;;38.94;20.58;100349.54;3508194;83;99001;-87
2022/07/21 15:30:58;;;;;;;10.58;4.80;;;;;;;38.80;20.81;100336.67;3508229;83;99042;-85
2022/07/21 15:35:58;;;;;;;11.68;4.72;;;;;;;38.71;20.71;100342.33;3509577;82;98845;-83
2022/07/21 15:40:59;;;;;;;12.35;4.67;;;;;;;38.64;21.21;100330.12;3485805;83;99024;-83
2022/07/21 15:46:00;;;;;;;10.32;4.62;;;;;;;38.48;21.05;100327.16;3519718;83;99472;-84
2022/07/21 15:51:00;;;;;;;9.35;4.47;;;;;;;38.42;21.31;100325.11;3485239;82;99001;-84
2022/07/21 15:56:05;;;;;;;9.65;4.78;;;;;;;38.13;21.18;100322.25;3505644;83;98908;-83
2022/07/21 16:01:05;;;;;;;8.68;4.58;;;;;;;37.97;21.33;100311.27;3496120;83;98620;-83
2022/07/21 16:06:08;;;;;;;8.53;4.15;;;;;;;37.86;21.94;100313.05;3486635;83;98697;-83
2022/07/21 16:11:09;;;;;;;12.03;4.40;;;;;;;37.69;21.71;100307.02;3506949;82;98681;-82
2022/07/21 16:16:10;;;;;;;13.18;4.87;;;;;;;37.49;21.84;100307.87;3520626;83;99001;-84
2022/07/21 16:21:10;;;;;;;13.03;4.30;;;;;;;37.22;21.64;100305.13;3505975;83;99064;-84
2022/07/21 16:26:11;;;;;;;9.08;4.60;;;;;;;36.98;22.01;100299.75;3510629;83;99069;-84
2022/07/21 16:31:13;;;;;;;11.08;5.08;;;;;;;36.82;22.14;100310.35;3498812;82;98408;-84
2022/07/21 16:36:15;;;;;;;12.15;4.78;;;;;;;36.64;22.01;100309.92;3491687;82;98793;-85
2022/07/21 16:41:16;;;;;;;11.30;5.20;;;;;;;36.46;22.21;100309.42;3502945;83;99067;-82
2022/07/21 16:46:16;;;;;;;14.30;8.18;;;;;;;36.23;23.08;100319.14;3488832;83;99450;-82
2022/07/21 16:51:18;;;;;;;12.82;9.55;;;;;;;35.94;25.50;100332.53;3511849;83;99093;-88
2022/07/21 16:56:19;;;;;;;14.93;7.85;;;;;;;35.50;26.81;100335.54;3521154;83;99047;-85
2022/07/21 17:01:20;;;;;;;12.85;8.95;;;;;;;35.12;27.79;100347.84;3498717;83;98432;-90
2022/07/21 17:06:21;;;;;;;11.60;8.63;;;;;;;34.86;28.51;100344.94;3499989;83;98914;-90
2022/07/21 17:11:22;;;;;;;14.78;10.03;;;;;;;34.61;29.15;100349.89;3506079;83;98773;-87
2022/07/21 17:16:25;;;;;;;16.02;8.75;;;;;;;34.27;29.84;100358.22;3493830;83;99627;-92
2022/07/21 17:21:25;;;;;;;13.62;9.23;;;;;;;34.09;30.25;100358.19;3503729;82;99524;-88
2022/07/21 17:26:26;;;;;;;10.58;8.60;;;;;;;33.89;30.77;100370.93;3517282;83;99024;-88
2022/07/21 17:31:27;;;;;;;11.57;8.60;;;;;;;33.66;31.21;100373.14;3504202;83;98430;-88
2022/07/21 17:36:28;;;;;;;13.30;8.73;;;;;;;33.43;31.48;100372.65;3498588;83;99166;-88
2022/07/21 17:41:28;;;;;;;14.40;8.10;;;;;;;33.23;31.87;100378.04;3509031;83;98936;-89
2022/07/21 17:46:29;;;;;;;15.05;9.05;;;;;;;33.04;32.09;100381.45;3501991;83;99385;-86
2022/07/21 17:51:30;;;;;;;19.95;8.83;;;;;;;32.78;32.35;100370.55;3475748;83;99032;-88
2022/07/21 17:56:31;;;;;;;11.95;8.53;;;;;;;32.54;32.70;100378.22;3485786;82;98980;-89
2022/07/21 18:01:32;;;;;;;13.60;8.70;;;;;;;32.38;33.23;100369.92;3507766;83;25797;-88
2022/07/21 18:06:33;;;;;;;11.10;8.15;;;;;;;32.23;33.39;100374.39;3500120;82;98786;-88
2022/07/21 18:11:34;;;;;;;13.03;8.03;;;;;;;32.09;33.98;100374.09;3512555;82;99415;-88
2022/07/21 18:16:34;;;;;;;11.70;8.18;;;;;;;31.95;34.26;100374.55;3489127;83;98746;-88
2022/07/21 18:21:35;;;;;;;15.20;8.38;;;;;;;31.77;34.54;100380.83;3489291;83;99045;-86
2022/07/21 18:26:36;;;;;;;12.05;9.23;;;;;;;31.60;34.72;100378.67;3487626;83;99090;-88
2022/07/21 18:31:37;;;;;;;13.70;7.80;;;;;;;31.42;35.05;100380.68;3531797;83;98914;-86
2022/07/21 18:36:39;;;;;;;16.02;8.88;;;;;;;31.29;35.69;100382.52;3543758;83;98958;-88
2022/07/21 18:41:41;;;;;;;10.78;7.55;;;;;;;31.17;36.14;100385.23;3487750;83;98816;-86
2022/07/21 18:46:42;;;;;;;14.87;8.57;;;;;;;31.06;36.44;100383.83;3517764;83;99422;-88
2022/07/21 18:51:43;;;;;;;13.35;8.55;;;;;;;30.85;36.53;100403.20;3478539;83;99394;-87
2022/07/21 18:56:43;;;;;;;12.05;8.23;;;;;;;30.50;36.87;100382.23;3506446;83;98977;-88
2022/07/21 19:01:46;;;;;;;15.00;8.38;;;;;;;30.47;37.26;100407.42;3524953;83;98949;-87
2022/07/21 19:06:47;;;;;;;14.10;7.60;;;;;;;30.33;37.49;100412.67;3460960;83;98750;-90
2022/07/21 19:11:48;;;;;;;12.45;9.48;;;;;;;30.18;38.03;100425.67;3478418;83;98799;-91
2022/07/21 19:16:48;;;;;;;14.75;8.70;;;;;;;30.03;38.59;100435.00;3499331;83;99516;-88
2022/07/21 19:21:49;;;;;;;15.70;8.18;;;;;;;29.88;39.00;100440.75;3523301;83;98183;-88
2022/07/21 19:26:50;;;;;;;13.62;8.53;;;;;;;29.75;39.58;100451.13;3510238;83;98959;-87
2022/07/21 19:31:53;;;;;;;20.52;9.45;;;;;;;29.66;40.30;100461.92;3548020;83;99190;-88
2022/07/21 19:36:54;;;;;;;14.13;9.05;;;;;;;29.52;41.07;100484.87;3506420;82;98875;-86
2022/07/21 19:41:55;;;;;;;12.00;8.38;;;;;;;29.40;41.61;100506.56;3544823;83;98845;-87
2022/07/21 19:46:55;;;;;;;14.75;9.05;;;;;;;29.25;42.03;100510.20;3541307;83;99366;-88
2022/07/21 19:51:56;;;;;;;13.68;8.83;;;;;;;29.11;42.51;100500.56;3509080;83;99432;-88
2022/07/21 19:56:57;;;;;;;12.80;8.60;;;;;;;28.95;42.63;100497.53;3536788;83;99574;-91
2022/07/21 20:01:58;;;;;;;17.12;8.88;;;;;;;28.77;42.72;100504.96;3535181;83;99022;-91
2022/07/21 20:07:00;;;;;;;11.35;7.42;;;;;;;28.61;43.11;100504.14;3474890;84;98651;-88
2022/07/21 20:12:03;;;;;;;13.13;7.10;;;;;;;28.47;43.12;100500.12;3484662;84;98792;-87
2022/07/21 20:17:06;;;;;;;11.53;6.72;;;;;;;28.33;43.41;100500.95;3471340;83;98935;-88
2022/07/21 20:22:06;;;;;;;10.58;7.25;;;;;;;28.19;43.81;100503.24;3484077;82;99010;-87
2022/07/21 20:27:07;;;;;;;13.32;6.85;;;;;;;27.96;44.53;100523.25;3492162;82;99055;-89
2022/07/21 20:32:08;;;;;;;12.63;7.00;;;;;;;27.96;44.53;100523.25;3475776;84;99523;-90
2022/07/21 20:37:09;;;;;;;8.95;5.62;;;;;;;27.77;44.61;100528.98;3515416;83;99124;-89
2022/07/21 20:42:10;;;;;;;11.63;5.70;;;;;;;27.60;45.06;100530.16;3465297;84;99156;-91
2022/07/21 20:47:12;;;;;;;9.80;5.10;;;;;;;27.50;45.62;100540.02;3443231;84;98720;-90
2022/07/21 20:52:14;;;;;;;11.00;5.92;;;;;;;27.38;46.12;100538.28;3456888;84;98825;-88
2022/07/21 20:57:17;;;;;;;9.15;4.70;;;;;;;27.28;46.42;100532.59;3449473;83;99018;-91
2022/07/21 21:02:17;;;;;;;8.98;5.00;;;;;;;27.17;46.99;100543.70;3482890;84;98878;-90
2022/07/21 21:07:18;;;;;;;8.37;5.00;;;;;;;27.02;46.81;100552.77;3453394;83;98429;-91
2022/07/21 21:12:20;;;;;;;8.60;4.58;;;;;;;26.91;47.46;100556.05;3444912;84;98698;-89
2022/07/21 21:17:23;;;;;;;7.95;4.62;;;;;;;26.80;48.14;100565.08;3459629;83;99130;-88
2022/07/21 21:22:23;;;;;;;7.08;4.97;;;;;;;26.75;48.19;100564.33;3495490;83;99499;-89
2022/07/21 21:27:24;;;;;;;10.90;4.95;;;;;;;26.71;48.54;100548.20;3485671;83;98604;-91
2022/07/21 21:32:25;;;;;;;10.13;4.40;;;;;;;26.68;49.34;100545.56;3504131;83;99369;-90
2022/07/21 21:37:26;;;;;;;7.10;4.70;;;;;;;26.70;49.79;100545.88;3481732;83;98681;-90
2022/07/21 21:42:27;;;;;;;8.93;4.75;;;;;;;26.67;50.02;100555.31;3492999;83;98732;-88
2022/07/21 21:47:28;;;;;;;10.58;4.70;;;;;;;26.63;50.25;100553.30;3544269;83;98650;-90
2022/07/21 21:52:29;;;;;;;7.03;4.60;;;;;;;26.57;50.32;100536.27;3510203;83;99053;-88
2022/07/21 21:57:30;;;;;;;6.87;4.20;;;;;;;26.60;50.91;100545.16;3519625;83;98810;-91
2022/07/21 22:02:31;;;;;;;7.08;4.47;;;;;;;26.58;51.12;100548.31;3518864;83;98929;-87
2022/07/21 22:07:32;;;;;;;7.42;4.62;;;;;;;26.52;51.38;100557.28;3493570;83;98553;-89
2022/07/21 22:12:33;;;;;;;7.12;4.45;;;;;;;26.49;51.63;100558.26;3502809;83;98940;-88
2022/07/21 22:17:34;;;;;;;8.78;4.83;;;;;;;26.46;52.02;100555.77;3526344;83;98829;-87
2022/07/21 22:22:36;;;;;;;7.72;5.03;;;;;;;26.42;52.17;100548.11;3532459;83;98876;-87
2022/07/21 22:27:39;;;;;;;9.70;5.78;;;;;;;26.44;52.34;100549.84;3517646;83;98837;-87
2022/07/21 22:32:40;;;;;;;10.00;5.08;;;;;;;26.43;52.79;100553.14;3559535;83;99125;-87
2022/07/21 22:37:41;;;;;;;9.40;4.85;;;;;;;26.40;53.05;100549.86;3519815;83;98749;-88
2022/07/21 22:42:42;;;;;;;8.38;5.15;;;;;;;26.37;53.09;100549.42;3520250;83;35490;-89
2022/07/21 22:47:43;;;;;;;8.38;4.92;;;;;;;26.34;53.17;100551.78;3514645;83;98706;-87
2022/07/21 22:52:44;;;;;;;11.20;5.53;;;;;;;26.31;53.41;100555.58;3528462;83;98071;-88
2022/07/21 22:57:45;;;;;;;7.53;5.03;;;;;;;26.30;53.67;100570.93;3519494;83;99356;-87
2022/07/21 23:02:46;;;;;;;8.83;5.47;;;;;;;26.23;53.74;100560.81;3513173;83;98039;-89
2022/07/21 23:07:47;;;;;;;8.07;4.90;;;;;;;26.17;53.98;100554.89;3520221;83;104059;-88
2022/07/21 23:12:48;;;;;;;8.90;5.30;;;;;;;26.13;54.28;100570.59;3536166;82;35440;-88
2022/07/21 23:17:49;;;;;;;9.50;5.37;;;;;;;26.09;54.50;100557.90;3536640;83;98655;-88